.
WxDataArchive / Data Records for 2007-06-18
2007-06-17 June 2007 2007-06-19

Data Records for Monday, 18 June 2007

Time	Temp	Chill	HIndex	Humid	Dewpt	 Wind 	HiWind	WindDir	Rain 	Barom 
-----	----	-----	------	-----	-----	------	------	-------	-----	----- 
00:00	71.8	71.8	71.8	78	64.6	0	0	---	0.00	29.899 
00:05	71.8	71.8	71.8	78	64.6	0	0	---	0.00	29.897 
00:10	72.0	72.0	72.0	77	64.4	0	0	---	0.00	29.899 
00:15	72.1	72.1	72.1	77	64.5	0	0	---	0.00	29.897 
00:20	72.1	72.1	72.1	77	64.5	0	0	---	0.00	29.897 
00:25	72.3	72.3	72.3	77	64.7	0	0	---	0.00	29.897 
00:30	72.3	72.3	72.3	77	64.7	0	0	---	0.00	29.896 
00:35	72.3	72.3	72.3	77	64.7	0	0	---	0.00	29.895 
00:40	72.3	72.3	72.3	77	64.7	0	0	---	0.00	29.897 
00:45	72.5	72.5	72.5	77	64.9	0	1	270	0.00	29.903 
00:50	73.0	73.0	73.0	76	65.0	0	2	270	0.00	29.911 
00:55	73.2	73.2	73.2	75	64.8	0	0	---	0.00	29.911 
01:00	73.0	73.0	73.0	75	64.6	0	0	---	0.00	29.911 
01:05	73.0	73.0	73.0	75	64.6	0	0	---	0.00	29.909 
01:10	73.2	73.2	73.2	73	64.0	0	1	270	0.00	29.908 
01:15	73.5	73.5	73.5	73	64.3	0	1	270	0.00	29.907 
01:20	74.0	74.0	74.0	71	64.0	0	1	270	0.00	29.908 
01:25	74.4	74.4	74.4	70	64.0	0	2	270	0.00	29.909 
01:30	75.1	75.1	76.9	69	64.2	1	3	270	0.00	29.909 
01:35	75.3	75.3	77.0	69	64.4	1	4	248	0.00	29.909 
01:40	75.4	75.4	77.1	69	64.5	0	1	248	0.00	29.902 
01:45	75.3	75.3	77.0	70	64.8	0	0	---	0.00	29.899 
01:50	75.1	75.1	76.8	70	64.6	0	1	248	0.00	29.894 
01:55	74.9	74.9	74.9	70	64.4	0	2	248	0.00	29.893 
02:00	74.9	74.9	74.9	71	64.8	0	1	248	0.00	29.894 
02:05	74.7	74.7	74.7	71	64.7	0	0	---	0.00	29.889 
02:10	74.7	74.7	74.7	72	65.1	0	1	248	0.00	29.886 
02:15	74.6	74.6	74.6	73	65.4	0	1	248	0.00	29.884 
02:20	74.4	74.4	74.4	77	66.7	0	1	248	0.02	29.882 
02:25	73.7	73.7	73.7	80	67.1	0	1	248	0.00	29.877 
02:30	73.0	73.0	73.0	81	66.8	0	0	---	0.00	29.874 
02:35	72.5	72.5	72.5	83	67.0	0	0	---	0.00	29.875 
02:40	72.1	72.1	72.1	85	67.3	0	1	248	0.00	29.877 
02:45	71.8	71.8	71.8	86	67.4	0	1	248	0.00	29.879 
02:50	71.6	71.6	71.6	88	67.8	0	0	---	0.00	29.880 
02:55	71.5	71.5	71.5	89	68.1	0	1	248	0.00	29.879 
03:00	71.5	71.5	71.5	89	68.1	0	0	---	0.00	29.879 
03:05	71.3	71.3	71.3	89	67.9	0	0	---	0.00	29.880 
03:10	71.3	71.3	71.3	90	68.2	0	1	248	0.00	29.882 
03:15	71.1	71.1	71.1	90	68.0	0	0	---	0.00	29.880 
03:20	71.1	71.1	71.1	90	68.0	0	0	---	0.00	29.879 
03:25	71.1	71.1	71.1	91	68.3	0	0	---	0.00	29.879 
03:30	71.3	71.3	71.3	91	68.5	0	1	248	0.00	29.879 
03:35	71.3	71.3	71.3	91	68.5	0	0	---	0.00	29.879 
03:40	71.5	71.5	71.5	91	68.7	0	0	---	0.00	29.877 
03:45	71.3	71.3	71.3	91	68.5	0	0	---	0.00	29.877 
03:50	71.3	71.3	71.3	90	68.2	0	0	---	0.00	29.875 
03:55	71.1	71.1	71.1	90	68.0	0	0	---	0.00	29.875 
04:00	70.9	70.9	70.9	91	68.1	0	1	248	0.00	29.876 
04:05	70.8	70.8	70.8	91	68.0	0	1	248	0.00	29.877 
04:10	70.6	70.6	70.6	91	67.8	0	0	---	0.00	29.878 
04:15	70.4	70.4	70.4	91	67.6	0	1	248	0.00	29.881 
04:20	70.4	70.4	70.4	92	68.0	0	1	248	0.00	29.882 
04:25	70.3	70.3	70.3	92	67.9	0	1	248	0.00	29.882 
04:30	70.3	70.3	70.3	92	67.9	0	0	---	0.00	29.886 
04:35	70.1	70.1	70.1	93	68.0	0	0	---	0.00	29.885 
04:40	69.9	69.9	69.9	93	67.8	0	0	---	0.00	29.886 
04:45	69.8	69.8	69.8	93	67.7	0	0	---	0.00	29.890 
04:50	69.6	69.6	69.6	93	67.5	0	0	---	0.00	29.893 
04:55	69.6	69.6	69.6	93	67.5	0	0	---	0.00	29.892 
05:00	69.6	69.6	69.6	93	67.5	0	0	---	0.00	29.893 
05:05	69.6	69.6	69.6	94	67.8	0	0	---	0.00	29.893 
05:10	69.4	69.4	69.4	94	67.6	0	0	---	0.00	29.894 
05:15	69.4	69.4	69.4	94	67.6	0	0	---	0.00	29.897 
05:20	69.4	69.4	69.4	94	67.6	0	0	---	0.00	29.898 
05:25	69.3	69.3	69.3	94	67.5	0	0	---	0.00	29.899 
05:30	69.3	69.3	69.3	94	67.5	0	0	---	0.00	29.899 
05:35	69.3	69.3	69.3	94	67.5	0	0	---	0.00	29.899 
05:40	69.3	69.3	69.3	94	67.5	0	0	---	0.00	29.899 
05:45	69.3	69.3	69.3	94	67.5	0	0	---	0.00	29.900 
05:50	69.3	69.3	69.3	94	67.5	0	0	---	0.00	29.900 
05:55	69.3	69.3	69.3	94	67.5	0	0	---	0.00	29.900 
06:00	69.3	69.3	69.3	94	67.5	0	0	---	0.00	29.901 
06:05	69.4	69.4	69.4	94	67.6	0	0	---	0.00	29.907 
06:10	69.6	69.6	69.6	93	67.5	0	0	---	0.00	29.910 
06:15	69.8	69.8	69.8	93	67.7	0	1	248	0.00	29.913 
06:20	69.9	69.9	69.9	92	67.5	0	0	---	0.00	29.915 
06:25	70.3	70.3	70.3	91	67.5	0	0	---	0.00	29.917 
06:30	70.6	70.6	70.6	90	67.5	0	1	248	0.00	29.915 
06:35	71.1	71.1	71.1	89	67.7	0	0	---	0.00	29.916 
06:40	71.5	71.5	71.5	87	67.4	0	0	---	0.00	29.916 
06:45	71.8	71.8	71.8	86	67.4	0	0	---	0.00	29.917 
06:50	72.1	72.1	72.1	85	67.3	0	1	248	0.00	29.918 
06:55	72.5	72.5	72.5	84	67.4	0	1	248	0.00	29.918 
07:00	72.8	72.8	72.8	83	67.3	0	1	248	0.00	29.919 
07:05	73.3	73.3	73.3	82	67.5	0	1	248	0.00	29.922 
07:10	73.9	73.9	73.9	80	67.3	0	1	248	0.00	29.922 
07:15	74.4	74.4	74.4	79	67.4	0	1	248	0.00	29.925 
07:20	74.9	74.9	74.9	78	67.6	0	1	248	0.00	29.924 
07:25	75.6	75.6	76.9	75	67.1	1	3	248	0.00	29.927 
07:30	76.0	76.0	77.4	74	67.1	0	2	248	0.00	29.925 
07:35	76.5	76.5	78.1	72	66.8	0	2	248	0.00	29.928 
07:40	77.0	77.0	78.8	71	66.9	0	2	248	0.00	29.928 
07:45	77.4	77.4	79.3	70	66.8	0	1	248	0.00	29.930 
07:50	77.7	77.7	79.6	69	66.7	0	1	248	0.00	29.929 
07:55	78.1	78.1	80.1	69	67.1	0	1	248	0.00	29.929 
08:00	78.1	78.1	80.0	67	66.2	0	1	248	0.00	29.930 
08:05	78.5	78.5	80.6	68	67.0	0	2	248	0.00	29.931 
08:10	79.0	79.0	81.0	65	66.2	0	1	248	0.00	29.931 
08:15	79.6	79.6	81.9	66	67.2	0	2	248	0.00	29.931 
08:20	80.1	80.1	82.4	64	66.8	1	2	248	0.00	29.932 
08:25	80.3	80.3	82.4	62	66.1	1	3	248	0.00	29.931 
08:30	80.7	80.7	82.9	62	66.4	1	3	248	0.00	29.930 
08:35	81.2	81.2	83.8	63	67.4	1	3	248	0.00	29.928 
08:40	81.4	81.4	83.3	58	65.2	1	3	248	0.00	29.927 
08:45	81.8	81.8	83.8	58	65.6	1	3	248	0.00	29.928 
08:50	82.2	82.2	84.3	58	65.9	0	2	248	0.00	29.929 
08:55	83.0	83.0	84.7	54	64.6	1	3	248	0.00	29.925 
09:00	83.2	83.2	84.9	54	64.8	1	3	248	0.00	29.924 
09:05	83.8	83.8	86.2	56	66.4	0	2	248	0.00	29.926 
09:10	84.3	84.3	85.5	50	63.6	1	3	248	0.00	29.927 
09:15	84.9	84.9	86.3	50	64.2	1	2	90	0.00	29.921 
09:20	85.3	85.3	87.4	52	65.6	0	2	90	0.00	29.916 
09:25	85.5	85.5	86.2	46	62.3	1	3	270	0.00	29.915 
09:30	85.9	85.9	87.2	48	63.9	1	3	270	0.00	29.915 
09:35	86.3	86.3	88.0	49	64.9	1	4	248	0.00	29.914 
09:40	86.3	86.3	87.2	46	63.0	2	6	248	0.00	29.915 
09:45	86.5	86.5	87.2	45	62.6	1	3	248	0.00	29.913 
09:50	86.3	86.3	86.7	44	61.8	2	6	270	0.00	29.915 
09:55	86.5	86.5	87.2	45	62.6	1	4	270	0.00	29.912 
10:00	87.0	87.0	87.9	45	63.1	1	4	270	0.00	29.913 
10:05	87.2	87.2	87.9	44	62.6	1	3	248	0.00	29.914 
10:10	88.0	88.0	90.0	47	65.2	0	2	248	0.00	29.912 
10:15	88.8	88.8	89.9	43	63.4	1	3	135	0.00	29.910 
10:20	89.0	89.0	90.2	43	63.6	1	4	270	0.00	29.910 
10:25	89.0	89.0	90.2	43	63.6	1	4	90	0.00	29.911 
10:30	88.8	88.8	90.6	45	64.7	1	4	315	0.00	29.912 
10:35	88.6	88.6	89.0	41	61.8	2	6	90	0.00	29.907 
10:40	88.8	88.8	90.6	45	64.7	2	4	270	0.00	29.908 
10:45	88.8	88.8	90.9	46	65.3	2	5	45	0.00	29.906 
10:50	89.0	89.0	90.2	43	63.6	2	6	90	0.00	29.904 
10:55	88.8	88.8	88.7	39	60.6	3	5	90	0.00	29.901 
11:00	89.0	89.0	89.6	41	62.2	1	5	90	0.00	29.900 
11:05	88.8	88.8	89.6	42	62.7	2	7	248	0.00	29.901 
11:10	89.3	89.3	89.7	40	61.8	2	7	270	0.00	29.900 
11:15	89.5	89.5	90.6	42	63.3	2	5	270	0.00	29.897 
11:20	89.7	89.7	89.3	37	59.9	2	4	270	0.00	29.895 
11:25	89.9	89.9	90.2	39	61.6	3	9	270	0.00	29.894 
11:30	90.3	90.3	90.1	37	60.4	2	6	270	0.00	29.894 
11:35	91.0	91.0	90.5	35	59.5	1	5	248	0.00	29.887 
11:40	91.4	91.4	90.4	33	58.2	2	7	248	0.00	29.884 
11:45	91.6	91.6	90.1	31	56.6	2	5	270	0.00	29.883 
11:50	92.1	92.1	90.2	29	55.2	2	6	248	0.00	29.883 
11:55	92.3	92.3	90.2	28	54.4	2	7	315	0.00	29.884 
12:00	92.1	92.1	90.0	28	54.3	3	6	270	0.00	29.883 
12:05	91.8	91.8	89.4	27	53.0	3	7	248	0.00	29.884 
12:10	91.6	91.6	89.4	28	53.8	3	6	248	0.00	29.882 
12:15	91.8	91.8	89.4	27	53.0	3	7	270	0.00	29.882 
12:20	92.1	92.1	89.7	27	53.3	3	6	270	0.00	29.883 
12:25	92.1	92.1	89.7	27	53.3	3	11	270	0.00	29.882 
12:30	92.1	92.1	90.0	28	54.3	2	5	270	0.00	29.881 
12:35	92.5	92.5	91.0	30	56.5	2	6	270	0.00	29.880 
12:40	92.7	92.7	90.7	28	54.8	2	6	270	0.00	29.878 
12:45	92.9	92.9	90.9	28	54.9	2	6	270	0.00	29.875 
12:50	92.9	92.9	90.7	27	53.9	2	6	270	0.00	29.870 
12:55	92.9	92.9	90.9	28	54.9	2	6	270	0.00	29.869 
13:00	92.9	92.9	90.9	28	54.9	3	6	270	0.00	29.869 
13:05	92.9	92.9	90.9	28	54.9	3	7	270	0.00	29.866 
13:10	92.5	92.5	89.9	26	52.6	4	7	270	0.00	29.867 
13:15	92.3	92.3	89.9	27	53.4	4	11	270	0.00	29.866 
13:20	92.5	92.5	90.4	28	54.6	3	10	270	0.00	29.863 
13:25	92.7	92.7	90.7	28	54.8	3	8	270	0.00	29.861 
13:30	92.9	92.9	90.7	27	53.9	3	6	248	0.00	29.860 
13:35	92.9	92.9	90.7	27	53.9	2	6	270	0.00	29.862 
13:40	92.7	92.7	91.0	29	55.7	3	10	270	0.00	29.862 
13:45	92.9	92.9	91.5	30	56.8	3	6	248	0.00	29.862 
13:50	92.3	92.3	90.5	29	55.4	4	8	270	0.00	29.863 
13:55	92.5	92.5	90.7	29	55.6	3	6	270	0.00	29.859 
14:00	93.2	93.2	91.6	29	56.2	3	5	270	0.00	29.857 
14:05	92.9	92.9	90.9	28	54.9	3	10	270	0.00	29.857 
14:10	92.5	92.5	90.7	29	55.6	4	11	270	0.00	29.857 
14:15	91.8	91.8	90.4	31	56.8	2	6	270	0.00	29.854 
14:20	92.3	92.3	90.7	30	56.3	3	7	270	0.00	29.854 
14:25	92.7	92.7	91.0	29	55.7	3	5	270	0.00	29.851 
14:30	92.7	92.7	91.3	30	56.7	3	10	270	0.00	29.851 
14:35	93.2	93.2	91.6	29	56.2	2	6	270	0.00	29.849 
14:40	92.7	92.7	91.0	29	55.7	3	9	270	0.00	29.850 
14:45	92.3	92.3	91.0	31	57.2	3	10	270	0.00	29.845 
14:50	92.3	92.3	91.0	31	57.2	3	10	248	0.00	29.845 
14:55	92.5	92.5	91.0	30	56.5	3	5	270	0.00	29.839 
15:00	92.7	92.7	91.3	30	56.7	2	5	270	0.00	29.835 
15:05	92.9	92.9	91.8	31	57.8	3	7	270	0.00	29.836 
15:10	92.3	92.3	91.0	31	57.2	4	10	270	0.00	29.836 
15:15	91.2	91.2	90.8	35	59.7	4	15	270	0.00	29.845 
15:20	89.9	89.9	89.0	35	58.5	5	12	248	0.00	29.851 
15:25	88.4	88.4	87.4	36	58.0	4	11	270	0.00	29.848 
15:30	87.8	87.8	86.9	37	58.2	3	11	270	0.00	29.849 
15:35	87.6	87.6	86.4	36	57.3	4	7	270	0.00	29.845 
15:40	88.0	88.0	87.1	37	58.4	4	6	270	0.00	29.840 
15:45	87.6	87.6	87.1	39	59.5	4	9	270	0.00	29.841 
15:50	87.4	87.4	86.9	39	59.4	4	11	248	0.00	29.839 
15:55	87.0	87.0	86.0	37	57.5	4	9	270	0.00	29.839 
16:00	87.0	87.0	86.4	39	59.0	3	10	248	0.00	29.838 
16:05	87.2	87.2	86.6	39	59.2	4	9	270	0.00	29.840 
16:10	87.0	87.0	86.2	38	58.3	4	12	270	0.00	29.839 
16:15	86.5	86.5	85.8	39	58.6	3	7	270	0.00	29.839 
16:20	86.3	86.3	85.6	39	58.4	4	9	248	0.00	29.840 
16:25	86.3	86.3	86.0	41	59.8	4	9	270	0.00	29.839 
16:30	86.3	86.3	85.8	40	59.1	2	6	248	0.00	29.838 
16:35	86.7	86.7	86.0	39	58.7	2	6	248	0.00	29.838 
16:40	86.3	86.3	86.0	41	59.8	2	7	270	0.00	29.839 
16:45	85.9	85.9	85.3	40	58.7	2	8	270	0.00	29.839 
16:50	86.3	86.3	85.8	40	59.1	4	10	270	0.00	29.837 
16:55	86.3	86.3	85.8	40	59.1	3	5	270	0.00	29.838 
17:00	85.9	85.9	85.5	41	59.4	3	11	270	0.00	29.837 
17:05	85.5	85.5	85.5	43	60.4	3	10	270	0.00	29.837 
17:10	85.1	85.1	85.2	44	60.7	1	4	270	0.00	29.832 
17:15	84.7	84.7	84.7	44	60.3	2	6	270	0.00	29.827 
17:20	84.7	84.7	85.0	45	61.0	2	5	248	0.00	29.826 
17:25	84.7	84.7	85.2	46	61.6	1	3	248	0.00	29.825 
17:30	84.9	84.9	85.0	44	60.5	3	7	270	0.00	29.825 
17:35	85.1	85.1	85.4	45	61.3	2	4	270	0.00	29.825 
17:40	85.3	85.3	85.7	45	61.5	2	5	270	0.00	29.825 
17:45	85.5	85.5	85.9	45	61.7	1	4	248	0.00	29.824 
17:50	85.3	85.3	85.2	43	60.2	2	6	270	0.00	29.822 
17:55	84.9	84.9	85.0	44	60.5	3	9	270	0.00	29.822 
18:00	84.5	84.5	84.5	44	60.2	2	4	248	0.00	29.822 
18:05	84.5	84.5	84.5	44	60.2	2	6	270	0.00	29.820 
18:10	84.3	84.3	84.5	45	60.6	2	4	270	0.00	29.820 
18:15	84.1	84.1	84.3	45	60.4	2	6	225	0.00	29.821 
18:20	84.1	84.1	84.4	46	61.1	1	3	270	0.00	29.821 
18:25	84.0	84.0	84.3	46	61.0	1	4	248	0.00	29.819 
18:30	83.8	83.8	84.1	46	60.8	1	2	292	0.00	29.820 
18:35	83.8	83.8	83.9	45	60.2	1	5	270	0.00	29.821 
18:40	83.8	83.8	83.9	45	60.2	1	4	270	0.00	29.821 
18:45	83.8	83.8	83.7	44	59.5	2	7	270	0.00	29.823 
18:50	84.0	84.0	83.8	43	59.1	2	7	270	0.00	29.822 
18:55	83.8	83.8	83.4	42	58.2	2	7	270	0.00	29.819 
19:00	83.8	83.8	83.4	42	58.2	2	7	292	0.00	29.815 
19:05	83.8	83.8	83.6	43	58.9	2	4	270	0.00	29.809 
19:10	83.8	83.8	83.6	43	58.9	2	5	270	0.00	29.812 
19:15	83.6	83.6	83.4	43	58.7	1	3	248	0.00	29.812 
19:20	83.4	83.4	83.2	43	58.5	2	5	270	0.00	29.812 
19:25	83.4	83.4	83.3	44	59.2	1	5	292	0.00	29.810 
19:30	83.4	83.4	83.3	44	59.2	1	4	292	0.00	29.809 
19:35	83.2	83.2	83.1	44	59.0	2	5	248	0.00	29.810 
19:40	83.0	83.0	82.9	44	58.8	2	6	270	0.00	29.816 
19:45	83.0	83.0	82.9	44	58.8	2	6	248	0.00	29.817 
19:50	83.0	83.0	82.9	44	58.8	2	7	248	0.00	29.819 
19:55	82.8	82.8	82.9	45	59.3	2	6	248	0.00	29.820 
20:00	82.6	82.6	82.8	46	59.7	2	6	248	0.00	29.821 
20:05	82.4	82.4	82.6	46	59.5	1	6	248	0.00	29.817 
20:10	82.4	82.4	82.6	46	59.5	2	6	270	0.00	29.817 
20:15	82.2	82.2	82.4	46	59.3	1	4	248	0.00	29.817 
20:20	81.8	81.8	82.1	47	59.6	1	4	248	0.00	29.814 
20:25	81.6	81.6	81.9	47	59.4	2	8	270	0.00	29.817 
20:30	81.6	81.6	81.9	47	59.4	2	9	270	0.00	29.815 
20:35	81.2	81.2	81.7	48	59.6	1	4	270	0.00	29.815 
20:40	80.9	80.9	81.5	49	59.9	1	5	248	0.00	29.817 
20:45	80.9	80.9	81.6	50	60.5	2	7	270	0.00	29.818 
20:50	80.7	80.7	81.4	50	60.3	2	5	248	0.00	29.819 
20:55	80.7	80.7	81.4	50	60.3	2	9	270	0.00	29.818 
21:00	80.5	80.5	81.4	51	60.7	2	5	248	0.00	29.817 
21:05	80.3	80.3	81.2	51	60.5	1	4	248	0.00	29.816 
21:10	80.3	80.3	81.3	52	61.0	2	7	248	0.00	29.817 
21:15	80.1	80.1	81.1	52	60.9	1	3	270	0.00	29.818 
21:20	79.9	79.9	81.0	53	61.2	2	6	270	0.00	29.819 
21:25	79.8	79.8	80.9	53	61.1	1	4	248	0.00	29.821 
21:30	79.4	79.4	80.6	54	61.3	1	3	248	0.00	29.820 
21:35	79.4	79.4	80.6	54	61.3	1	5	270	0.00	29.820 
21:40	79.2	79.2	80.4	54	61.1	1	2	248	0.00	29.818 
21:45	79.0	79.0	80.3	55	61.4	1	3	270	0.00	29.817 
21:50	78.6	78.6	80.0	56	61.6	0	2	248	0.00	29.816 
21:55	78.5	78.5	79.9	56	61.5	0	2	248	0.00	29.816 
22:00	78.5	78.5	80.0	57	62.0	1	3	248	0.00	29.817 
22:05	78.5	78.5	80.0	57	62.0	1	5	270	0.00	29.818 
22:10	78.3	78.3	79.9	58	62.3	1	3	248	0.00	29.819 
22:15	78.1	78.1	79.7	58	62.1	1	2	248	0.00	29.817 
22:20	78.1	78.1	79.7	58	62.1	1	3	248	0.00	29.816 
22:25	77.7	77.7	79.4	59	62.2	0	2	248	0.00	29.817 
22:30	77.6	77.6	79.3	60	62.6	1	7	248	0.00	29.819 
22:35	77.4	77.4	79.1	60	62.4	1	3	248	0.00	29.820 
22:40	77.4	77.4	79.1	60	62.4	1	3	248	0.00	29.820 
22:45	77.2	77.2	79.0	61	62.7	0	2	248	0.00	29.824 
22:50	77.0	77.0	78.8	61	62.5	1	3	270	0.00	29.824 
22:55	77.0	77.0	78.8	62	63.0	1	3	270	0.00	29.823 
23:00	77.0	77.0	78.8	62	63.0	1	3	248	0.00	29.823 
23:05	77.0	77.0	78.8	62	63.0	1	2	248	0.00	29.821 
23:10	76.8	76.8	78.6	62	62.8	1	4	248	0.00	29.821 
23:15	76.8	76.8	78.6	63	63.2	1	3	225	0.00	29.823 
23:20	76.7	76.7	78.5	63	63.1	0	2	270	0.00	29.821 
23:25	76.7	76.7	78.5	63	63.1	1	5	270	0.00	29.822 
23:30	76.7	76.7	78.5	63	63.1	0	2	270	0.00	29.820 
23:35	76.5	76.5	78.3	64	63.4	0	3	315	0.00	29.818 
23:40	76.5	76.5	78.3	64	63.4	0	3	270	0.00	29.819 
23:45	76.5	76.5	78.3	64	63.4	0	4	248	0.00	29.816 
23:50	76.5	76.5	78.3	64	63.4	1	3	248	0.00	29.816 
23:55	76.3	76.3	78.1	65	63.6	0	1	248	0.00	29.814 

CoCoRaHS
IN-AL-39
A2 Web Hosting
Creative Commons License
GoDaddy
Look for:

loaded 2017-10-19 14:39:13 • last modified 2010-11-18 10:43:29
Privacy PolicyDisclaimer
• wx.awcolley.com is powered by PmWiki v.2002016 •
• all content (unless otherwise noted) © 2017 A W Colley